sensor_id;sensor_type;location;lat;lon;timestamp;P1;durP1;ratioP1;P2;durP2;ratioP2
19778;SDS011;10049;59.306;18.090;2023-07-31T00:00:05;3.30;;;2.60;;
19778;SDS011;10049;59.306;18.090;2023-07-31T00:02:35;2.97;;;2.70;;
19778;SDS011;10049;59.306;18.090;2023-07-31T00:05:02;3.00;;;2.58;;
19778;SDS011;10049;59.306;18.090;2023-07-31T00:07:30;3.10;;;2.58;;
19778;SDS011;10049;59.306;18.090;2023-07-31T00:09:58;3.35;;;2.50;;
19778;SDS011;10049;59.306;18.090;2023-07-31T00:12:27;3.63;;;2.63;;
19778;SDS011;10049;59.306;18.090;2023-07-31T00:14:54;3.75;;;2.78;;
19778;SDS011;10049;59.306;18.090;2023-07-31T00:17:22;4.05;;;2.80;;
19778;SDS011;10049;59.306;18.090;2023-07-31T00:19:50;2.90;;;2.60;;
19778;SDS011;10049;59.306;18.090;2023-07-31T00:22:18;2.90;;;2.60;;
19778;SDS011;10049;59.306;18.090;2023-07-31T00:24:45;4.07;;;2.90;;
19778;SDS011;10049;59.306;18.090;2023-07-31T00:27:12;4.40;;;2.75;;
19778;SDS011;10049;59.306;18.090;2023-07-31T00:29:44;3.80;;;2.65;;
19778;SDS011;10049;59.306;18.090;2023-07-31T00:32:12;3.65;;;2.53;;
19778;SDS011;10049;59.306;18.090;2023-07-31T00:34:40;3.65;;;2.90;;
19778;SDS011;10049;59.306;18.090;2023-07-31T00:37:07;3.83;;;2.60;;
19778;SDS011;10049;59.306;18.090;2023-07-31T00:39:35;6.30;;;3.35;;
19778;SDS011;10049;59.306;18.090;2023-07-31T00:42:02;3.35;;;2.53;;
19778;SDS011;10049;59.306;18.090;2023-07-31T00:44:30;3.38;;;2.63;;
19778;SDS011;10049;59.306;18.090;2023-07-31T00:46:59;5.63;;;2.83;;
19778;SDS011;10049;59.306;18.090;2023-07-31T00:49:26;5.50;;;2.60;;
19778;SDS011;10049;59.306;18.090;2023-07-31T00:51:54;5.93;;;2.90;;
19778;SDS011;10049;59.306;18.090;2023-07-31T00:54:22;5.00;;;2.65;;
19778;SDS011;10049;59.306;18.090;2023-07-31T00:56:50;4.60;;;2.90;;
19778;SDS011;10049;59.306;18.090;2023-07-31T00:59:17;3.80;;;2.97;;
19778;SDS011;10049;59.306;18.090;2023-07-31T01:01:45;3.75;;;2.95;;
19778;SDS011;10049;59.306;18.090;2023-07-31T01:04:14;5.45;;;3.10;;
19778;SDS011;10049;59.306;18.090;2023-07-31T01:06:45;2.65;;;2.40;;
19778;SDS011;10049;59.306;18.090;2023-07-31T01:09:18;3.65;;;2.95;;
19778;SDS011;10049;59.306;18.090;2023-07-31T01:11:48;3.53;;;2.90;;
19778;SDS011;10049;59.306;18.090;2023-07-31T01:14:17;3.05;;;2.65;;
19778;SDS011;10049;59.306;18.090;2023-07-31T01:16:45;3.25;;;2.80;;
19778;SDS011;10049;59.306;18.090;2023-07-31T01:19:14;3.33;;;3.03;;
19778;SDS011;10049;59.306;18.090;2023-07-31T01:21:53;3.25;;;2.75;;
19778;SDS011;10049;59.306;18.090;2023-07-31T01:24:28;3.28;;;2.97;;
19778;SDS011;10049;59.306;18.090;2023-07-31T01:27:01;4.22;;;2.88;;
19778;SDS011;10049;59.306;18.090;2023-07-31T01:29:33;3.22;;;2.70;;
19778;SDS011;10049;59.306;18.090;2023-07-31T01:32:02;2.97;;;2.55;;
19778;SDS011;10049;59.306;18.090;2023-07-31T01:34:30;3.25;;;2.70;;
19778;SDS011;10049;59.306;18.090;2023-07-31T01:36:58;2.60;;;2.40;;
19778;SDS011;10049;59.306;18.090;2023-07-31T01:39:27;3.33;;;2.47;;
19778;SDS011;10049;59.306;18.090;2023-07-31T01:41:55;3.00;;;2.53;;
19778;SDS011;10049;59.306;18.090;2023-07-31T01:44:24;3.08;;;2.50;;
19778;SDS011;10049;59.306;18.090;2023-07-31T01:46:52;4.88;;;2.88;;
19778;SDS011;10049;59.306;18.090;2023-07-31T01:49:19;3.03;;;2.70;;
19778;SDS011;10049;59.306;18.090;2023-07-31T01:51:47;2.92;;;2.63;;
19778;SDS011;10049;59.306;18.090;2023-07-31T01:54:14;6.35;;;3.10;;
19778;SDS011;10049;59.306;18.090;2023-07-31T01:56:41;3.47;;;2.42;;
19778;SDS011;10049;59.306;18.090;2023-07-31T01:59:10;2.78;;;2.45;;
19778;SDS011;10049;59.306;18.090;2023-07-31T02:01:41;4.40;;;2.60;;
19778;SDS011;10049;59.306;18.090;2023-07-31T02:04:09;3.38;;;2.85;;
19778;SDS011;10049;59.306;18.090;2023-07-31T02:06:36;3.15;;;2.70;;
19778;SDS011;10049;59.306;18.090;2023-07-31T02:09:04;3.30;;;2.42;;
19778;SDS011;10049;59.306;18.090;2023-07-31T02:11:31;3.55;;;2.80;;
19778;SDS011;10049;59.306;18.090;2023-07-31T02:13:59;2.90;;;2.60;;
19778;SDS011;10049;59.306;18.090;2023-07-31T02:16:26;4.78;;;2.83;;
19778;SDS011;10049;59.306;18.090;2023-07-31T02:18:55;5.88;;;2.97;;
19778;SDS011;10049;59.306;18.090;2023-07-31T02:21:23;14.43;;;3.13;;
19778;SDS011;10049;59.306;18.090;2023-07-31T02:23:52;3.38;;;2.63;;
19778;SDS011;10049;59.306;18.090;2023-07-31T02:26:20;4.18;;;2.90;;
19778;SDS011;10049;59.306;18.090;2023-07-31T02:28:48;3.10;;;2.70;;
19778;SDS011;10049;59.306;18.090;2023-07-31T02:31:16;4.32;;;3.05;;
19778;SDS011;10049;59.306;18.090;2023-07-31T02:33:43;4.82;;;2.95;;
19778;SDS011;10049;59.306;18.090;2023-07-31T02:36:13;4.28;;;2.95;;
19778;SDS011;10049;59.306;18.090;2023-07-31T02:38:40;3.20;;;2.65;;
19778;SDS011;10049;59.306;18.090;2023-07-31T02:41:10;3.45;;;2.70;;
19778;SDS011;10049;59.306;18.090;2023-07-31T02:43:37;3.30;;;2.92;;
19778;SDS011;10049;59.306;18.090;2023-07-31T02:46:05;3.70;;;3.00;;
19778;SDS011;10049;59.306;18.090;2023-07-31T02:48:33;5.00;;;3.15;;
19778;SDS011;10049;59.306;18.090;2023-07-31T02:51:00;3.45;;;2.97;;
19778;SDS011;10049;59.306;18.090;2023-07-31T02:53:30;3.55;;;2.92;;
19778;SDS011;10049;59.306;18.090;2023-07-31T02:55:57;3.67;;;2.80;;
19778;SDS011;10049;59.306;18.090;2023-07-31T02:58:25;3.50;;;2.88;;
19778;SDS011;10049;59.306;18.090;2023-07-31T03:00:52;4.97;;;3.33;;
19778;SDS011;10049;59.306;18.090;2023-07-31T03:03:20;3.20;;;2.90;;
19778;SDS011;10049;59.306;18.090;2023-07-31T03:05:51;3.60;;;2.92;;
19778;SDS011;10049;59.306;18.090;2023-07-31T03:08:18;4.10;;;2.70;;
19778;SDS011;10049;59.306;18.090;2023-07-31T03:10:47;5.55;;;2.70;;
19778;SDS011;10049;59.306;18.090;2023-07-31T03:13:15;4.28;;;2.70;;
19778;SDS011;10049;59.306;18.090;2023-07-31T03:15:42;3.42;;;2.80;;
19778;SDS011;10049;59.306;18.090;2023-07-31T03:18:10;3.38;;;2.70;;
19778;SDS011;10049;59.306;18.090;2023-07-31T03:20:41;4.13;;;2.55;;
19778;SDS011;10049;59.306;18.090;2023-07-31T03:23:09;4.70;;;2.80;;
19778;SDS011;10049;59.306;18.090;2023-07-31T03:25:36;5.72;;;2.65;;
19778;SDS011;10049;59.306;18.090;2023-07-31T03:28:07;4.30;;;2.65;;
19778;SDS011;10049;59.306;18.090;2023-07-31T03:30:35;2.78;;;2.50;;
19778;SDS011;10049;59.306;18.090;2023-07-31T03:33:04;3.25;;;2.95;;
19778;SDS011;10049;59.306;18.090;2023-07-31T03:35:31;4.45;;;3.00;;
19778;SDS011;10049;59.306;18.090;2023-07-31T03:37:59;3.30;;;2.83;;
19778;SDS011;10049;59.306;18.090;2023-07-31T03:40:27;3.47;;;2.70;;
19778;SDS011;10049;59.306;18.090;2023-07-31T03:42:54;3.35;;;3.05;;
19778;SDS011;10049;59.306;18.090;2023-07-31T03:45:23;4.00;;;2.78;;
19778;SDS011;10049;59.306;18.090;2023-07-31T03:47:51;3.47;;;2.95;;
19778;SDS011;10049;59.306;18.090;2023-07-31T03:50:21;3.28;;;2.90;;
19778;SDS011;10049;59.306;18.090;2023-07-31T03:52:50;4.32;;;2.70;;
19778;SDS011;10049;59.306;18.090;2023-07-31T03:55:19;3.35;;;2.85;;
19778;SDS011;10049;59.306;18.090;2023-07-31T03:57:48;3.72;;;2.55;;
19778;SDS011;10049;59.306;18.090;2023-07-31T04:00:16;4.63;;;2.53;;
19778;SDS011;10049;59.306;18.090;2023-07-31T04:02:46;5.40;;;2.70;;
19778;SDS011;10049;59.306;18.090;2023-07-31T04:05:13;2.70;;;2.50;;
19778;SDS011;10049;59.306;18.090;2023-07-31T04:07:41;4.57;;;2.50;;
19778;SDS011;10049;59.306;18.090;2023-07-31T04:10:09;2.90;;;2.60;;
19778;SDS011;10049;59.306;18.090;2023-07-31T04:12:36;3.15;;;2.63;;
19778;SDS011;10049;59.306;18.090;2023-07-31T04:15:05;3.60;;;2.80;;
19778;SDS011;10049;59.306;18.090;2023-07-31T04:17:33;3.20;;;2.70;;
19778;SDS011;10049;59.306;18.090;2023-07-31T04:20:03;3.45;;;2.47;;
19778;SDS011;10049;59.306;18.090;2023-07-31T04:22:30;4.03;;;2.88;;
19778;SDS011;10049;59.306;18.090;2023-07-31T04:25:00;4.85;;;2.88;;
19778;SDS011;10049;59.306;18.090;2023-07-31T04:27:27;4.80;;;3.10;;
19778;SDS011;10049;59.306;18.090;2023-07-31T04:29:55;4.28;;;2.90;;
19778;SDS011;10049;59.306;18.090;2023-07-31T04:32:22;3.25;;;2.75;;
19778;SDS011;10049;59.306;18.090;2023-07-31T04:34:50;4.30;;;3.05;;
19778;SDS011;10049;59.306;18.090;2023-07-31T04:37:19;4.70;;;3.17;;
19778;SDS011;10049;59.306;18.090;2023-07-31T04:39:47;4.60;;;2.90;;
19778;SDS011;10049;59.306;18.090;2023-07-31T04:42:15;5.28;;;3.00;;
19778;SDS011;10049;59.306;18.090;2023-07-31T04:44:42;5.25;;;2.90;;
19778;SDS011;10049;59.306;18.090;2023-07-31T04:47:10;4.85;;;3.15;;
19778;SDS011;10049;59.306;18.090;2023-07-31T04:49:37;3.92;;;2.75;;
19778;SDS011;10049;59.306;18.090;2023-07-31T04:52:07;2.90;;;2.60;;
19778;SDS011;10049;59.306;18.090;2023-07-31T04:54:38;3.47;;;2.90;;
19778;SDS011;10049;59.306;18.090;2023-07-31T04:57:06;4.97;;;2.90;;
19778;SDS011;10049;59.306;18.090;2023-07-31T04:59:34;3.88;;;3.20;;
19778;SDS011;10049;59.306;18.090;2023-07-31T05:02:02;3.25;;;2.80;;
19778;SDS011;10049;59.306;18.090;2023-07-31T05:04:30;3.35;;;3.00;;
19778;SDS011;10049;59.306;18.090;2023-07-31T05:06:58;3.28;;;2.90;;
19778;SDS011;10049;59.306;18.090;2023-07-31T05:09:26;4.03;;;2.83;;
19778;SDS011;10049;59.306;18.090;2023-07-31T05:11:55;3.00;;;2.55;;
19778;SDS011;10049;59.306;18.090;2023-07-31T05:14:23;3.70;;;2.60;;
19778;SDS011;10049;59.306;18.090;2023-07-31T05:16:51;3.08;;;2.78;;
19778;SDS011;10049;59.306;18.090;2023-07-31T05:19:19;3.95;;;2.80;;
19778;SDS011;10049;59.306;18.090;2023-07-31T05:21:46;3.65;;;3.15;;
19778;SDS011;10049;59.306;18.090;2023-07-31T05:24:18;2.88;;;2.60;;
19778;SDS011;10049;59.306;18.090;2023-07-31T05:26:46;3.67;;;2.90;;
19778;SDS011;10049;59.306;18.090;2023-07-31T05:29:15;3.60;;;2.80;;
19778;SDS011;10049;59.306;18.090;2023-07-31T05:31:43;3.38;;;3.08;;
19778;SDS011;10049;59.306;18.090;2023-07-31T05:34:10;3.55;;;3.22;;
19778;SDS011;10049;59.306;18.090;2023-07-31T05:36:38;4.20;;;3.10;;
19778;SDS011;10049;59.306;18.090;2023-07-31T05:39:05;3.25;;;2.95;;
19778;SDS011;10049;59.306;18.090;2023-07-31T05:41:34;5.65;;;2.75;;
19778;SDS011;10049;59.306;18.090;2023-07-31T05:44:03;4.00;;;3.33;;
19778;SDS011;10049;59.306;18.090;2023-07-31T05:46:35;4.60;;;3.30;;
19778;SDS011;10049;59.306;18.090;2023-07-31T05:49:08;3.92;;;3.15;;
19778;SDS011;10049;59.306;18.090;2023-07-31T05:51:37;3.38;;;2.90;;
19778;SDS011;10049;59.306;18.090;2023-07-31T05:54:05;4.97;;;2.92;;
19778;SDS011;10049;59.306;18.090;2023-07-31T05:56:32;3.40;;;2.85;;
19778;SDS011;10049;59.306;18.090;2023-07-31T05:59:01;3.58;;;3.00;;
19778;SDS011;10049;59.306;18.090;2023-07-31T06:01:30;4.75;;;2.92;;
19778;SDS011;10049;59.306;18.090;2023-07-31T06:03:59;3.10;;;2.80;;
19778;SDS011;10049;59.306;18.090;2023-07-31T06:06:27;4.70;;;2.83;;
19778;SDS011;10049;59.306;18.090;2023-07-31T06:08:56;3.03;;;2.72;;
19778;SDS011;10049;59.306;18.090;2023-07-31T06:11:23;2.85;;;2.50;;
19778;SDS011;10049;59.306;18.090;2023-07-31T06:13:51;3.72;;;2.90;;
19778;SDS011;10049;59.306;18.090;2023-07-31T06:16:21;3.15;;;2.85;;
19778;SDS011;10049;59.306;18.090;2023-07-31T06:18:49;3.33;;;3.03;;
19778;SDS011;10049;59.306;18.090;2023-07-31T06:21:18;3.35;;;2.85;;
19778;SDS011;10049;59.306;18.090;2023-07-31T06:23:45;2.97;;;2.67;;
19778;SDS011;10049;59.306;18.090;2023-07-31T06:26:13;3.70;;;2.90;;
19778;SDS011;10049;59.306;18.090;2023-07-31T06:28:41;3.33;;;2.70;;
19778;SDS011;10049;59.306;18.090;2023-07-31T06:31:08;4.85;;;2.80;;
19778;SDS011;10049;59.306;18.090;2023-07-31T06:33:36;3.25;;;2.55;;
19778;SDS011;10049;59.306;18.090;2023-07-31T06:36:04;3.10;;;2.80;;
19778;SDS011;10049;59.306;18.090;2023-07-31T06:38:33;2.40;;;2.20;;
19778;SDS011;10049;59.306;18.090;2023-07-31T06:41:02;2.20;;;2.00;;
19778;SDS011;10049;59.306;18.090;2023-07-31T06:43:33;2.58;;;2.00;;
19778;SDS011;10049;59.306;18.090;2023-07-31T06:46:04;3.30;;;2.13;;
19778;SDS011;10049;59.306;18.090;2023-07-31T06:48:32;3.83;;;2.00;;
19778;SDS011;10049;59.306;18.090;2023-07-31T06:51:00;2.67;;;1.80;;
19778;SDS011;10049;59.306;18.090;2023-07-31T06:53:28;1.92;;;1.70;;
19778;SDS011;10049;59.306;18.090;2023-07-31T06:55:57;4.28;;;1.80;;
19778;SDS011;10049;59.306;18.090;2023-07-31T06:58:24;3.92;;;1.63;;
19778;SDS011;10049;59.306;18.090;2023-07-31T07:00:52;1.50;;;1.30;;
19778;SDS011;10049;59.306;18.090;2023-07-31T07:03:19;4.13;;;1.60;;
19778;SDS011;10049;59.306;18.090;2023-07-31T07:05:46;5.38;;;1.48;;
19778;SDS011;10049;59.306;18.090;2023-07-31T07:08:17;4.97;;;1.40;;
19778;SDS011;10049;59.306;18.090;2023-07-31T07:10:45;2.65;;;1.30;;
19778;SDS011;10049;59.306;18.090;2023-07-31T07:13:15;4.85;;;1.45;;
19778;SDS011;10049;59.306;18.090;2023-07-31T07:15:43;3.38;;;1.48;;
19778;SDS011;10049;59.306;18.090;2023-07-31T07:18:11;4.30;;;1.63;;
19778;SDS011;10049;59.306;18.090;2023-07-31T07:20:39;4.15;;;1.42;;
19778;SDS011;10049;59.306;18.090;2023-07-31T07:23:07;1.98;;;1.67;;
19778;SDS011;10049;59.306;18.090;2023-07-31T07:25:41;1.88;;;1.17;;
19778;SDS011;10049;59.306;18.090;2023-07-31T07:28:09;4.45;;;1.27;;
19778;SDS011;10049;59.306;18.090;2023-07-31T07:30:40;1.95;;;1.30;;
19778;SDS011;10049;59.306;18.090;2023-07-31T07:33:08;2.58;;;1.20;;
19778;SDS011;10049;59.306;18.090;2023-07-31T07:35:37;4.28;;;1.20;;
19778;SDS011;10049;59.306;18.090;2023-07-31T07:38:05;1.83;;;1.25;;
19778;SDS011;10049;59.306;18.090;2023-07-31T07:40:38;3.83;;;1.30;;
19778;SDS011;10049;59.306;18.090;2023-07-31T07:43:05;4.47;;;1.35;;
19778;SDS011;10049;59.306;18.090;2023-07-31T07:45:33;3.40;;;1.58;;
19778;SDS011;10049;59.306;18.090;2023-07-31T07:48:02;2.88;;;1.30;;
19778;SDS011;10049;59.306;18.090;2023-07-31T07:50:30;3.03;;;1.48;;
19778;SDS011;10049;59.306;18.090;2023-07-31T07:52:58;5.70;;;1.40;;
19778;SDS011;10049;59.306;18.090;2023-07-31T07:55:25;2.05;;;1.30;;
19778;SDS011;10049;59.306;18.090;2023-07-31T07:57:54;2.50;;;1.42;;
19778;SDS011;10049;59.306;18.090;2023-07-31T08:00:22;3.33;;;1.50;;
19778;SDS011;10049;59.306;18.090;2023-07-31T08:02:49;3.17;;;1.60;;
19778;SDS011;10049;59.306;18.090;2023-07-31T08:05:19;1.67;;;1.50;;
19778;SDS011;10049;59.306;18.090;2023-07-31T08:07:46;3.42;;;1.70;;
19778;SDS011;10049;59.306;18.090;2023-07-31T08:10:14;4.22;;;1.70;;
19778;SDS011;10049;59.306;18.090;2023-07-31T08:12:41;2.85;;;1.52;;
19778;SDS011;10049;59.306;18.090;2023-07-31T08:15:09;2.78;;;1.50;;
19778;SDS011;10049;59.306;18.090;2023-07-31T08:17:38;6.80;;;1.60;;
19778;SDS011;10049;59.306;18.090;2023-07-31T08:20:07;2.97;;;1.50;;
19778;SDS011;10049;59.306;18.090;2023-07-31T08:22:38;3.28;;;1.60;;
19778;SDS011;10049;59.306;18.090;2023-07-31T08:25:25;3.50;;;1.60;;
19778;SDS011;10049;59.306;18.090;2023-07-31T08:27:55;4.00;;;1.90;;
19778;SDS011;10049;59.306;18.090;2023-07-31T08:30:23;3.58;;;1.60;;
19778;SDS011;10049;59.306;18.090;2023-07-31T08:32:53;5.05;;;1.65;;
19778;SDS011;10049;59.306;18.090;2023-07-31T08:35:20;6.47;;;1.50;;
19778;SDS011;10049;59.306;18.090;2023-07-31T08:37:50;2.63;;;1.50;;
19778;SDS011;10049;59.306;18.090;2023-07-31T08:40:17;2.60;;;1.30;;
19778;SDS011;10049;59.306;18.090;2023-07-31T08:42:47;1.77;;;1.30;;
19778;SDS011;10049;59.306;18.090;2023-07-31T08:45:15;1.70;;;1.30;;
19778;SDS011;10049;59.306;18.090;2023-07-31T08:47:44;1.77;;;1.30;;
19778;SDS011;10049;59.306;18.090;2023-07-31T08:50:12;2.03;;;1.13;;
19778;SDS011;10049;59.306;18.090;2023-07-31T08:52:40;2.45;;;1.23;;
19778;SDS011;10049;59.306;18.090;2023-07-31T08:55:09;3.53;;;1.17;;
19778;SDS011;10049;59.306;18.090;2023-07-31T08:57:39;2.22;;;1.02;;
19778;SDS011;10049;59.306;18.090;2023-07-31T09:00:08;1.27;;;1.00;;
19778;SDS011;10049;59.306;18.090;2023-07-31T09:02:37;1.33;;;0.80;;
19778;SDS011;10049;59.306;18.090;2023-07-31T09:05:06;2.00;;;0.93;;
19778;SDS011;10049;59.306;18.090;2023-07-31T09:07:34;3.05;;;0.93;;
19778;SDS011;10049;59.306;18.090;2023-07-31T09:10:02;1.40;;;0.90;;
19778;SDS011;10049;59.306;18.090;2023-07-31T09:12:31;1.17;;;0.70;;
19778;SDS011;10049;59.306;18.090;2023-07-31T09:14:58;1.65;;;0.88;;
19778;SDS011;10049;59.306;18.090;2023-07-31T09:17:30;1.73;;;0.95;;
19778;SDS011;10049;59.306;18.090;2023-07-31T09:20:12;1.23;;;0.70;;
19778;SDS011;10049;59.306;18.090;2023-07-31T09:22:44;2.05;;;0.88;;
19778;SDS011;10049;59.306;18.090;2023-07-31T09:25:22;0.82;;;0.55;;
19778;SDS011;10049;59.306;18.090;2023-07-31T09:27:54;2.05;;;0.50;;
19778;SDS011;10049;59.306;18.090;2023-07-31T09:30:22;1.48;;;0.70;;
19778;SDS011;10049;59.306;18.090;2023-07-31T09:32:59;1.08;;;0.57;;
19778;SDS011;10049;59.306;18.090;2023-07-31T09:35:28;2.47;;;0.80;;
19778;SDS011;10049;59.306;18.090;2023-07-31T09:37:59;1.70;;;0.80;;
19778;SDS011;10049;59.306;18.090;2023-07-31T09:40:28;1.48;;;0.70;;
19778;SDS011;10049;59.306;18.090;2023-07-31T09:42:58;1.75;;;0.80;;
19778;SDS011;10049;59.306;18.090;2023-07-31T09:45:26;1.80;;;0.80;;
19778;SDS011;10049;59.306;18.090;2023-07-31T09:47:55;2.03;;;0.90;;
19778;SDS011;10049;59.306;18.090;2023-07-31T09:50:23;2.25;;;1.00;;
19778;SDS011;10049;59.306;18.090;2023-07-31T09:52:51;2.65;;;0.70;;
19778;SDS011;10049;59.306;18.090;2023-07-31T09:55:19;2.03;;;0.88;;
19778;SDS011;10049;59.306;18.090;2023-07-31T09:57:47;2.33;;;0.73;;
19778;SDS011;10049;59.306;18.090;2023-07-31T10:00:19;0.55;;;0.55;;
19778;SDS011;10049;59.306;18.090;2023-07-31T10:02:51;2.83;;;0.73;;
19778;SDS011;10049;59.306;18.090;2023-07-31T10:05:19;1.88;;;0.60;;
19778;SDS011;10049;59.306;18.090;2023-07-31T10:07:50;1.27;;;0.80;;
19778;SDS011;10049;59.306;18.090;2023-07-31T10:10:22;1.42;;;0.70;;
19778;SDS011;10049;59.306;18.090;2023-07-31T10:12:50;1.60;;;0.60;;
19778;SDS011;10049;59.306;18.090;2023-07-31T10:15:20;3.78;;;0.77;;
19778;SDS011;10049;59.306;18.090;2023-07-31T10:17:48;1.00;;;0.60;;
19778;SDS011;10049;59.306;18.090;2023-07-31T10:20:17;2.00;;;0.77;;
19778;SDS011;10049;59.306;18.090;2023-07-31T10:22:43;3.10;;;0.90;;
19778;SDS011;10049;59.306;18.090;2023-07-31T10:25:12;1.67;;;0.80;;
19778;SDS011;10049;59.306;18.090;2023-07-31T10:27:40;1.50;;;0.70;;
19778;SDS011;10049;59.306;18.090;2023-07-31T10:30:09;1.33;;;0.63;;
19778;SDS011;10049;59.306;18.090;2023-07-31T10:32:40;0.98;;;0.63;;
19778;SDS011;10049;59.306;18.090;2023-07-31T10:35:08;1.50;;;0.70;;
19778;SDS011;10049;59.306;18.090;2023-07-31T10:37:38;3.47;;;0.80;;
19778;SDS011;10049;59.306;18.090;2023-07-31T10:40:10;1.17;;;0.60;;
19778;SDS011;10049;59.306;18.090;2023-07-31T10:42:45;0.90;;;0.60;;
19778;SDS011;10049;59.306;18.090;2023-07-31T10:45:14;1.58;;;0.77;;
19778;SDS011;10049;59.306;18.090;2023-07-31T10:47:57;0.85;;;0.63;;
19778;SDS011;10049;59.306;18.090;2023-07-31T10:50:31;1.35;;;0.60;;
19778;SDS011;10049;59.306;18.090;2023-07-31T10:52:59;1.92;;;0.60;;
19778;SDS011;10049;59.306;18.090;2023-07-31T10:55:28;2.58;;;0.70;;
19778;SDS011;10049;59.306;18.090;2023-07-31T10:57:56;0.95;;;0.55;;
19778;SDS011;10049;59.306;18.090;2023-07-31T11:00:26;0.98;;;0.57;;
19778;SDS011;10049;59.306;18.090;2023-07-31T11:03:05;1.17;;;0.60;;
19778;SDS011;10049;59.306;18.090;2023-07-31T11:05:42;0.52;;;0.47;;
19778;SDS011;10049;59.306;18.090;2023-07-31T11:08:11;1.00;;;0.70;;
19778;SDS011;10049;59.306;18.090;2023-07-31T11:10:40;1.40;;;0.80;;
19778;SDS011;10049;59.306;18.090;2023-07-31T11:13:08;2.47;;;0.80;;
19778;SDS011;10049;59.306;18.090;2023-07-31T11:15:35;7.80;;;0.82;;
19778;SDS011;10049;59.306;18.090;2023-07-31T11:18:05;1.17;;;0.60;;
19778;SDS011;10049;59.306;18.090;2023-07-31T11:20:33;5.65;;;0.95;;
19778;SDS011;10049;59.306;18.090;2023-07-31T11:23:01;3.70;;;1.00;;
19778;SDS011;10049;59.306;18.090;2023-07-31T11:25:29;3.33;;;0.75;;
19778;SDS011;10049;59.306;18.090;2023-07-31T11:27:58;1.23;;;0.70;;
19778;SDS011;10049;59.306;18.090;2023-07-31T11:30:29;0.85;;;0.70;;
19778;SDS011;10049;59.306;18.090;2023-07-31T11:32:57;1.58;;;0.63;;
19778;SDS011;10049;59.306;18.090;2023-07-31T11:35:29;2.08;;;0.60;;
19778;SDS011;10049;59.306;18.090;2023-07-31T11:37:58;0.73;;;0.60;;
19778;SDS011;10049;59.306;18.090;2023-07-31T11:40:27;3.55;;;0.80;;
19778;SDS011;10049;59.306;18.090;2023-07-31T11:42:56;2.60;;;0.50;;
19778;SDS011;10049;59.306;18.090;2023-07-31T11:45:24;1.73;;;0.70;;
19778;SDS011;10049;59.306;18.090;2023-07-31T11:47:53;1.17;;;0.80;;
19778;SDS011;10049;59.306;18.090;2023-07-31T11:50:21;0.80;;;0.80;;
19778;SDS011;10049;59.306;18.090;2023-07-31T11:52:54;2.38;;;0.90;;
19778;SDS011;10049;59.306;18.090;2023-07-31T11:55:22;1.27;;;0.70;;
19778;SDS011;10049;59.306;18.090;2023-07-31T11:57:51;1.42;;;0.77;;
19778;SDS011;10049;59.306;18.090;2023-07-31T12:00:19;0.88;;;0.70;;
19778;SDS011;10049;59.306;18.090;2023-07-31T12:02:47;1.80;;;0.80;;
19778;SDS011;10049;59.306;18.090;2023-07-31T12:05:15;0.85;;;0.60;;
19778;SDS011;10049;59.306;18.090;2023-07-31T12:07:46;0.60;;;0.60;;
19778;SDS011;10049;59.306;18.090;2023-07-31T12:10:37;2.88;;;0.80;;
19778;SDS011;10049;59.306;18.090;2023-07-31T12:13:07;2.45;;;0.80;;
19778;SDS011;10049;59.306;18.090;2023-07-31T12:15:40;1.65;;;0.80;;
19778;SDS011;10049;59.306;18.090;2023-07-31T12:18:09;1.83;;;0.80;;
19778;SDS011;10049;59.306;18.090;2023-07-31T12:20:45;1.23;;;0.68;;
19778;SDS011;10049;59.306;18.090;2023-07-31T12:23:13;1.60;;;0.93;;
19778;SDS011;10049;59.306;18.090;2023-07-31T12:25:45;2.55;;;0.85;;
19778;SDS011;10049;59.306;18.090;2023-07-31T12:28:13;1.77;;;0.80;;
19778;SDS011;10049;59.306;18.090;2023-07-31T12:30:41;1.85;;;0.88;;
19778;SDS011;10049;59.306;18.090;2023-07-31T12:33:12;4.20;;;0.75;;
19778;SDS011;10049;59.306;18.090;2023-07-31T12:35:42;1.17;;;0.60;;
19778;SDS011;10049;59.306;18.090;2023-07-31T12:38:11;0.60;;;0.60;;
19778;SDS011;10049;59.306;18.090;2023-07-31T12:40:39;0.57;;;0.57;;
19778;SDS011;10049;59.306;18.090;2023-07-31T12:43:08;1.70;;;0.60;;
19778;SDS011;10049;59.306;18.090;2023-07-31T12:45:36;1.10;;;0.60;;
19778;SDS011;10049;59.306;18.090;2023-07-31T12:48:04;1.55;;;0.60;;
19778;SDS011;10049;59.306;18.090;2023-07-31T12:50:31;1.15;;;0.63;;
19778;SDS011;10049;59.306;18.090;2023-07-31T12:53:01;0.73;;;0.70;;
19778;SDS011;10049;59.306;18.090;2023-07-31T12:55:30;1.02;;;0.70;;
19778;SDS011;10049;59.306;18.090;2023-07-31T12:57:59;1.13;;;0.77;;
19778;SDS011;10049;59.306;18.090;2023-07-31T13:00:28;1.10;;;0.80;;
19778;SDS011;10049;59.306;18.090;2023-07-31T13:02:55;4.57;;;0.70;;
19778;SDS011;10049;59.306;18.090;2023-07-31T13:05:29;1.48;;;0.80;;
19778;SDS011;10049;59.306;18.090;2023-07-31T13:07:56;1.58;;;0.70;;
19778;SDS011;10049;59.306;18.090;2023-07-31T13:10:24;1.30;;;0.70;;
19778;SDS011;10049;59.306;18.090;2023-07-31T13:12:52;1.75;;;0.70;;
19778;SDS011;10049;59.306;18.090;2023-07-31T13:15:20;1.45;;;0.70;;
19778;SDS011;10049;59.306;18.090;2023-07-31T13:17:50;0.73;;;0.60;;
19778;SDS011;10049;59.306;18.090;2023-07-31T13:20:17;0.90;;;0.55;;
19778;SDS011;10049;59.306;18.090;2023-07-31T13:22:44;1.67;;;0.70;;
19778;SDS011;10049;59.306;18.090;2023-07-31T13:25:12;0.85;;;0.60;;
19778;SDS011;10049;59.306;18.090;2023-07-31T13:27:40;0.95;;;0.75;;
19778;SDS011;10049;59.306;18.090;2023-07-31T13:30:15;0.60;;;0.60;;
19778;SDS011;10049;59.306;18.090;2023-07-31T13:32:42;4.78;;;0.68;;
19778;SDS011;10049;59.306;18.090;2023-07-31T13:35:14;7.22;;;0.82;;
19778;SDS011;10049;59.306;18.090;2023-07-31T13:37:42;1.83;;;0.60;;
19778;SDS011;10049;59.306;18.090;2023-07-31T13:40:10;2.50;;;0.70;;
19778;SDS011;10049;59.306;18.090;2023-07-31T13:42:41;1.25;;;0.80;;
19778;SDS011;10049;59.306;18.090;2023-07-31T13:45:09;1.40;;;0.60;;
19778;SDS011;10049;59.306;18.090;2023-07-31T13:47:38;0.93;;;0.60;;
19778;SDS011;10049;59.306;18.090;2023-07-31T13:50:06;1.42;;;0.75;;
19778;SDS011;10049;59.306;18.090;2023-07-31T13:52:35;0.77;;;0.50;;
19778;SDS011;10049;59.306;18.090;2023-07-31T13:55:03;0.70;;;0.57;;
19778;SDS011;10049;59.306;18.090;2023-07-31T13:57:31;0.75;;;0.75;;
19778;SDS011;10049;59.306;18.090;2023-07-31T13:59:58;1.65;;;0.90;;
19778;SDS011;10049;59.306;18.090;2023-07-31T14:02:27;1.48;;;0.80;;
19778;SDS011;10049;59.306;18.090;2023-07-31T14:04:55;0.70;;;0.70;;
19778;SDS011;10049;59.306;18.090;2023-07-31T14:07:22;1.00;;;0.77;;
19778;SDS011;10049;59.306;18.090;2023-07-31T14:09:51;1.05;;;0.90;;
19778;SDS011;10049;59.306;18.090;2023-07-31T14:12:19;1.50;;;0.73;;
19778;SDS011;10049;59.306;18.090;2023-07-31T14:14:47;1.55;;;0.80;;
19778;SDS011;10049;59.306;18.090;2023-07-31T14:17:14;1.15;;;0.90;;
19778;SDS011;10049;59.306;18.090;2023-07-31T14:19:43;0.60;;;0.60;;
19778;SDS011;10049;59.306;18.090;2023-07-31T14:22:11;0.70;;;0.70;;
19778;SDS011;10049;59.306;18.090;2023-07-31T14:24:38;0.88;;;0.80;;
19778;SDS011;10049;59.306;18.090;2023-07-31T14:27:10;0.93;;;0.80;;
19778;SDS011;10049;59.306;18.090;2023-07-31T14:29:40;0.73;;;0.73;;
19778;SDS011;10049;59.306;18.090;2023-07-31T14:32:08;0.90;;;0.90;;
19778;SDS011;10049;59.306;18.090;2023-07-31T14:34:35;1.60;;;1.02;;
19778;SDS011;10049;59.306;18.090;2023-07-31T14:37:03;0.90;;;0.80;;
19778;SDS011;10049;59.306;18.090;2023-07-31T14:39:31;1.10;;;0.90;;
19778;SDS011;10049;59.306;18.090;2023-07-31T14:41:59;1.13;;;1.00;;